Terminal Aerodrome Forecast
Issued by NWS

Home | Current Version | Previous Version | Text Only | Print | Product List | Glossary On
Versions: 1 2 3 4 5 6 7 8 9 10 11 12 13 14 15 16 17 18 19 20 21 22 23 24 25 26
000
FTUS43 KDVN 180100 AAA
TAFCID
TAF AMD
KCID 180154Z 1802/1824 30013KT P6SM BKN025 OVC045
     FM180500 31010KT P6SM BKN020
     FM181400 33010KT P6SM BKN035
     FM181700 34006KT P6SM SCT060=

USA.gov is the U.S. government's official web portal to all federal, state and local government web resources and services.